Time;durP1;ratioP1;P1;durP2;ratioP2;P2;SDS_P1;SDS_P2;PMS_P1;PMS_P2;Temp;Humidity;BMP_temperature;BMP_pressure;BME280_temperature;BME280_humidity;BME280_pressure;Samples;Min_cycle;Max_cycle;Signal;HPM_P1;HPM_P2
2020/12/06 00:01:06;;;;;;;32.20;21.57;;;;;;;6.68;73.31;99836.59;124620;1095;104660;-72
2020/12/06 00:03:36;;;;;;;36.43;23.27;;;;;;;6.67;73.35;99834.89;124601;1095;104577;-73
2020/12/06 00:06:05;;;;;;;37.77;23.87;;;;;;;6.65;72.46;99846.63;124585;1095;104503;-73
2020/12/06 00:08:33;;;;;;;33.60;20.30;;;;;;;6.61;73.40;99840.76;124598;1095;104570;-72
2020/12/06 00:11:02;;;;;;;32.35;21.10;;;;;;;6.60;73.23;99836.45;124635;1095;104660;-72
2020/12/06 00:13:30;;;;;;;38.10;24.00;;;;;;;6.59;73.44;99831.27;124607;1095;104592;-74
2020/12/06 00:15:58;;;;;;;39.33;27.93;;;;;;;6.58;73.23;99827.80;124522;1095;104564;-74
2020/12/06 00:18:27;;;;;;;37.37;25.63;;;;;;;6.56;72.85;99828.89;124634;1095;104564;-73
2020/12/06 00:20:55;;;;;;;34.23;24.23;;;;;;;6.53;73.75;99821.23;124629;1095;104612;-75
2020/12/06 00:23:24;;;;;;;35.37;23.83;;;;;;;6.52;73.12;99820.37;124635;1095;104608;-72
2020/12/06 00:25:52;;;;;;;34.23;24.13;;;;;;;6.53;73.25;99827.36;124591;1095;104528;-74
2020/12/06 00:28:20;;;;;;;31.97;22.63;;;;;;;6.51;74.14;99821.36;124621;1095;104520;-73
2020/12/06 00:30:49;;;;;;;37.97;25.83;;;;;;;6.49;73.93;99829.45;124614;1096;104663;-75
2020/12/06 00:33:17;;;;;;;32.80;22.47;;;;;;;6.50;73.39;99827.63;124586;1095;104589;-74
2020/12/06 00:35:45;;;;;;;35.37;22.83;;;;;;;6.50;73.33;99824.97;124570;1096;104637;-73
2020/12/06 00:38:14;;;;;;;33.30;22.57;;;;;;;6.51;73.39;99825.83;124612;1095;104494;-74
2020/12/06 00:40:42;;;;;;;33.10;22.47;;;;;;;6.50;72.89;99824.97;124645;1095;104672;-70
2020/12/06 00:43:10;;;;;;;37.00;23.93;;;;;;;6.48;73.86;99826.92;124610;1095;104595;-73
2020/12/06 00:45:39;;;;;;;33.87;21.87;;;;;;;6.48;73.00;99837.53;124579;1095;104599;-73
2020/12/06 00:48:07;;;;;;;35.67;24.57;;;;;;;6.46;74.46;99829.70;124396;1095;104516;-73
2020/12/06 00:50:35;;;;;;;35.80;25.13;;;;;;;6.47;74.21;99830.56;124638;1095;104641;-73
2020/12/06 00:53:04;;;;;;;36.37;23.17;;;;;;;6.46;73.40;99835.01;124599;1095;104558;-74
2020/12/06 00:55:33;;;;;;;33.47;22.60;;;;;;;6.46;73.96;99828.88;124577;1096;104942;-74
2020/12/06 00:58:02;;;;;;;39.60;24.55;;;;;;;6.49;74.21;99836.56;124594;1095;104592;-74
2020/12/06 01:00:30;;;;;;;34.73;23.03;;;;;;;6.49;73.30;99825.97;124641;1095;104571;-74
2020/12/06 01:02:59;;;;;;;39.67;26.87;;;;;;;6.49;72.84;99834.75;124598;1096;104608;-72
2020/12/06 01:05:27;;;;;;;35.17;21.63;;;;;;;6.51;73.75;99837.27;124604;1095;104529;-73
2020/12/06 01:07:55;;;;;;;34.20;21.30;;;;;;;6.49;74.61;99831.27;124638;1095;104599;-73
2020/12/06 01:10:25;;;;;;;35.97;23.80;;;;;;;6.52;73.33;99836.27;124626;1096;104574;-74
2020/12/06 01:12:53;;;;;;;34.07;22.43;;;;;;;6.54;74.69;99836.14;124647;1095;104643;-73
2020/12/06 01:15:22;;;;;;;38.37;23.37;;;;;;;6.54;73.78;99836.14;124630;1095;104507;-73
2020/12/06 01:17:50;;;;;;;36.33;23.63;;;;;;;6.54;74.13;99836.97;124572;1095;104599;-74
2020/12/06 01:20:18;;;;;;;36.80;23.15;;;;;;;6.53;74.45;99840.61;124645;1095;104590;-74
2020/12/06 01:22:47;;;;;;;33.60;21.45;;;;;;;6.54;74.37;99852.88;124454;1096;104592;-74
2020/12/06 01:25:15;;;;;;;33.20;21.60;;;;;;;6.57;74.67;99862.39;124598;1096;104571;-74
2020/12/06 01:27:43;;;;;;;35.97;24.50;;;;;;;6.58;74.25;99846.35;124588;1095;104628;-74
2020/12/06 01:30:11;;;;;;;33.30;20.97;;;;;;;6.57;74.39;99839.36;124399;1095;104667;-73
2020/12/06 01:32:40;;;;;;;30.07;19.47;;;;;;;6.57;73.93;99839.36;124584;1095;104573;-73
2020/12/06 01:35:08;;;;;;;36.20;22.90;;;;;;;6.59;74.49;99836.58;124607;1095;104640;-73
2020/12/06 01:37:36;;;;;;;31.67;20.23;;;;;;;6.62;74.79;99830.98;124595;1095;104554;-73
2020/12/06 01:40:05;;;;;;;34.63;22.87;;;;;;;6.62;74.73;99844.23;124575;1095;105009;-72
2020/12/06 01:42:33;;;;;;;35.10;23.73;;;;;;;6.65;73.92;99841.32;124564;1095;104609;-74
2020/12/06 01:45:02;;;;;;;34.73;23.17;;;;;;;6.63;73.98;99841.45;124592;1095;104603;-72
2020/12/06 01:47:31;;;;;;;35.33;23.90;;;;;;;6.63;75.04;99845.92;124590;1095;105009;-73
2020/12/06 01:49:59;;;;;;;34.20;22.33;;;;;;;6.64;73.72;99853.75;124612;1095;104669;-75
2020/12/06 01:52:29;;;;;;;32.00;21.53;;;;;;;6.66;73.71;99854.45;124635;1095;104516;-73
2020/12/06 01:54:58;;;;;;;32.97;22.23;;;;;;;6.69;73.62;99855.98;124594;1095;104516;-75
2020/12/06 01:57:27;;;;;;;33.57;21.30;;;;;;;6.69;73.71;99848.84;124604;1095;104599;-74
2020/12/06 01:59:55;;;;;;;30.23;19.20;;;;;;;6.69;74.04;99856.80;124637;1095;104641;-74
2020/12/06 02:02:23;;;;;;;32.60;21.67;;;;;;;6.69;74.25;99850.67;124595;1095;104534;-73
2020/12/06 02:04:53;;;;;;;33.43;21.90;;;;;;;6.69;74.15;99855.98;124568;1095;104545;-73
2020/12/06 02:07:23;;;;;;;33.87;21.27;;;;;;;6.71;75.24;99854.02;124649;1097;104490;-73
2020/12/06 02:09:51;;;;;;;31.60;20.27;;;;;;;6.75;73.99;99849.28;124704;1095;104587;-74
2020/12/06 02:12:20;;;;;;;28.90;19.17;;;;;;;6.78;74.26;99852.50;124589;1097;104538;-75
2020/12/06 02:14:48;;;;;;;31.07;19.07;;;;;;;6.81;73.68;99846.07;124606;1097;104714;-73
2020/12/06 02:17:16;;;;;;;32.63;21.43;;;;;;;6.80;74.27;99845.24;124632;1095;104507;-72
2020/12/06 02:19:44;;;;;;;30.97;21.17;;;;;;;6.82;74.60;99830.03;124651;1095;104670;-73
2020/12/06 02:22:13;;;;;;;31.87;20.10;;;;;;;6.83;74.58;99836.16;124593;1095;104484;-74
2020/12/06 02:24:41;;;;;;;31.25;20.00;;;;;;;6.82;74.05;99827.38;124569;1095;104534;-74
2020/12/06 02:27:09;;;;;;;30.77;20.20;;;;;;;6.80;74.59;99842.59;124587;1095;104522;-74
2020/12/06 02:29:37;;;;;;;31.50;20.97;;;;;;;6.79;74.48;99842.72;124650;1095;104625;-73
2020/12/06 02:32:06;;;;;;;34.83;23.53;;;;;;;6.77;74.51;99839.38;124588;1095;104563;-73
2020/12/06 02:34:34;;;;;;;32.03;20.43;;;;;;;6.76;73.91;99840.37;124609;1090;104486;-74
2020/12/06 02:37:02;;;;;;;31.70;18.80;;;;;;;6.73;74.37;99840.63;124614;1095;104571;-74
2020/12/06 02:39:31;;;;;;;28.77;18.93;;;;;;;6.71;74.46;99838.11;124624;1095;104637;-74
2020/12/06 02:41:59;;;;;;;27.67;19.00;;;;;;;6.67;74.74;99848.16;124577;1095;104529;-73
2020/12/06 02:44:27;;;;;;;28.10;18.83;;;;;;;6.67;73.86;99840.20;124571;1095;104596;-74
2020/12/06 02:46:56;;;;;;;29.03;19.37;;;;;;;6.66;73.83;99849.14;124581;1095;104605;-73
2020/12/06 02:49:24;;;;;;;26.77;17.83;;;;;;;6.66;74.00;99851.80;124625;1096;104624;-73
2020/12/06 02:51:52;;;;;;;26.87;18.27;;;;;;;6.66;74.68;99857.09;124616;1096;104687;-74
2020/12/06 02:54:21;;;;;;;28.70;19.07;;;;;;;6.64;74.81;99853.75;124601;1095;104600;-74
2020/12/06 02:56:49;;;;;;;32.10;19.27;;;;;;;6.64;74.60;99853.75;124601;1095;104590;-73
2020/12/06 02:59:17;;;;;;;29.00;18.05;;;;;;;6.62;74.62;99854.84;124624;1095;104679;-75
2020/12/06 03:01:45;;;;;;;26.80;18.27;;;;;;;6.60;75.23;99848.84;124611;1095;104566;-73
2020/12/06 03:04:14;;;;;;;27.93;17.60;;;;;;;6.60;74.68;99841.75;124593;1095;104596;-73
2020/12/06 03:06:42;;;;;;;27.40;17.87;;;;;;;6.60;75.01;99852.35;124595;1095;104978;-73
2020/12/06 03:09:10;;;;;;;28.87;18.27;;;;;;;6.58;74.44;99843.70;124655;1095;104498;-73
2020/12/06 03:11:39;;;;;;;26.80;17.50;;;;;;;6.56;74.97;99844.80;124548;1095;104595;-74
2020/12/06 03:14:08;;;;;;;26.87;18.60;;;;;;;6.54;74.07;99847.58;124614;1096;104557;-74
2020/12/06 03:16:37;;;;;;;26.55;18.20;;;;;;;6.53;74.36;99840.61;124602;1095;104566;-72
2020/12/06 03:19:05;;;;;;;30.37;19.07;;;;;;;6.53;74.36;99842.44;124687;1095;104647;-74
2020/12/06 03:21:33;;;;;;;29.40;18.50;;;;;;;6.52;74.86;99849.52;124580;1095;104512;-74
2020/12/06 03:24:02;;;;;;;26.10;17.03;;;;;;;6.53;75.17;99851.22;124574;1095;104570;-74
2020/12/06 03:26:30;;;;;;;26.27;17.00;;;;;;;6.53;75.27;99840.61;124570;1096;104487;-75
2020/12/06 03:28:58;;;;;;;28.70;18.57;;;;;;;6.54;74.29;99847.58;124607;1095;104676;-75
2020/12/06 03:31:26;;;;;;;30.70;19.90;;;;;;;6.55;74.82;99843.96;124595;1095;104600;-73
2020/12/06 03:33:55;;;;;;;31.67;18.63;;;;;;;6.56;74.64;99848.27;124501;1095;104567;-72
2020/12/06 03:36:23;;;;;;;25.63;16.97;;;;;;;6.56;74.67;99844.80;124561;1095;104610;-73
2020/12/06 03:38:51;;;;;;;28.73;18.23;;;;;;;6.55;74.77;99854.56;124596;1095;104664;-74
2020/12/06 03:41:20;;;;;;;27.47;17.87;;;;;;;6.56;75.49;99856.23;124605;1095;104536;-72
2020/12/06 03:43:48;;;;;;;28.13;18.20;;;;;;;6.58;74.48;99849.00;124348;1095;104587;-74
2020/12/06 03:46:16;;;;;;;26.87;17.37;;;;;;;6.61;74.77;99859.31;124588;1095;104490;-74
2020/12/06 03:48:45;;;;;;;24.83;16.27;;;;;;;6.62;75.39;99857.49;124633;1095;104623;-72
2020/12/06 03:51:13;;;;;;;26.33;17.30;;;;;;;6.64;74.77;99851.09;124572;1095;104565;-72
2020/12/06 03:53:41;;;;;;;28.10;17.10;;;;;;;6.67;75.30;99852.62;124628;1095;104574;-73
2020/12/06 03:56:09;;;;;;;28.67;17.83;;;;;;;6.70;75.54;99857.66;124593;1095;104628;-72
2020/12/06 03:58:38;;;;;;;26.53;17.07;;;;;;;6.71;75.40;99847.89;124623;1095;104618;-75
2020/12/06 04:01:06;;;;;;;26.77;17.03;;;;;;;6.71;74.68;99848.72;124615;1095;104603;-74
2020/12/06 04:03:34;;;;;;;26.73;17.33;;;;;;;6.74;75.41;99852.93;124618;1095;104921;-73
2020/12/06 04:06:03;;;;;;;27.57;17.70;;;;;;;6.72;74.53;99857.50;124598;1090;104506;-72
2020/12/06 04:08:31;;;;;;;25.30;16.67;;;;;;;6.72;75.50;99857.50;124607;1095;104666;-74
2020/12/06 04:10:59;;;;;;;26.40;16.95;;;;;;;6.71;75.82;99858.50;124653;1095;104610;-73
2020/12/06 04:13:27;;;;;;;24.63;16.03;;;;;;;6.69;74.43;99867.41;124568;1095;104487;-73
2020/12/06 04:15:56;;;;;;;26.27;17.00;;;;;;;6.72;75.23;99868.11;124584;1096;104545;-72
2020/12/06 04:18:24;;;;;;;25.77;16.83;;;;;;;6.73;75.47;99861.84;124608;1095;104599;-75
2020/12/06 04:20:53;;;;;;;25.13;16.20;;;;;;;6.76;75.38;99856.28;124580;1095;104942;-74
2020/12/06 04:23:21;;;;;;;28.40;17.80;;;;;;;6.78;74.52;99864.93;124571;1097;104570;-74
2020/12/06 04:25:49;;;;;;;26.00;15.93;;;;;;;6.80;74.24;99857.67;124597;1095;104519;-73
2020/12/06 04:28:17;;;;;;;25.63;17.03;;;;;;;6.82;74.55;99863.67;124661;1095;104904;-74
2020/12/06 04:30:46;;;;;;;27.30;17.23;;;;;;;6.84;75.40;99859.06;124635;1095;104621;-69
2020/12/06 04:33:14;;;;;;;26.77;17.33;;;;;;;6.85;75.36;99856.28;124520;1095;104513;-73
2020/12/06 04:35:42;;;;;;;27.23;18.43;;;;;;;6.86;75.27;99865.90;124603;1095;104570;-73
2020/12/06 04:38:10;;;;;;;27.07;17.23;;;;;;;6.87;74.72;99864.07;124494;1095;104586;-74
2020/12/06 04:40:39;;;;;;;27.67;17.60;;;;;;;6.87;75.25;99869.38;124585;1095;106087;-72
2020/12/06 04:43:07;;;;;;;26.23;16.80;;;;;;;6.86;74.49;99867.72;124585;1095;104570;-73
2020/12/06 04:45:36;;;;;;;26.07;17.53;;;;;;;6.88;75.80;99866.59;124636;1095;104531;-72
2020/12/06 04:48:08;;;;;;;28.30;17.50;;;;;;;6.88;75.49;99881.67;124628;1095;104717;-73
2020/12/06 04:50:38;;;;;;;26.80;17.53;;;;;;;6.88;74.26;99882.51;124610;1095;104580;-73
2020/12/06 04:53:07;;;;;;;24.17;16.03;;;;;;;6.91;74.27;99880.55;124612;1095;104625;-74
2020/12/06 04:55:37;;;;;;;29.13;17.70;;;;;;;6.92;74.63;99880.42;124622;1095;104554;-73
2020/12/06 04:58:05;;;;;;;27.53;17.70;;;;;;;6.90;75.25;99879.72;124621;1095;104583;-71
2020/12/06 05:00:35;;;;;;;27.57;17.47;;;;;;;6.89;74.24;99888.67;124574;1095;104615;-74
2020/12/06 05:03:08;;;;;;;27.07;17.53;;;;;;;6.91;75.06;99884.06;124604;1095;104516;-74
2020/12/06 05:05:38;;;;;;;24.90;16.57;;;;;;;6.93;74.90;99895.37;124592;1095;104593;-74
2020/12/06 05:08:11;;;;;;;28.77;17.83;;;;;;;6.93;75.14;99892.72;124689;1095;104689;-74
2020/12/06 05:10:41;;;;;;;30.40;19.70;;;;;;;6.94;74.79;99897.03;124613;1095;105172;-72
2020/12/06 05:13:10;;;;;;;25.97;16.93;;;;;;;6.95;75.36;99898.72;124653;1090;104618;-72
2020/12/06 05:15:39;;;;;;;29.27;18.87;;;;;;;6.93;74.43;99908.63;124614;1095;104938;-73
2020/12/06 05:18:07;;;;;;;30.75;19.10;;;;;;;6.93;75.32;99905.12;124620;1095;104986;-72
2020/12/06 05:20:36;;;;;;;109.70;65.50;;;;;;;6.93;74.22;99905.12;124602;1096;104694;-72
2020/12/06 05:23:05;;;;;;;195.37;98.33;;;;;;;6.94;74.44;99907.64;124597;1095;104592;-72
2020/12/06 05:25:34;;;;;;;98.80;46.60;;;;;;;6.93;75.37;99905.12;124585;1095;104975;-73
2020/12/06 05:28:02;;;;;;;336.75;212.75;;;;;;;6.94;75.35;99904.16;124608;1095;104696;-73
2020/12/06 05:30:31;;;;;;;176.10;93.00;;;;;;;6.91;74.89;99910.59;124535;1095;104632;-75
2020/12/06 05:32:59;;;;;;;110.17;61.60;;;;;;;6.91;75.55;99907.94;124580;1095;105141;-73
2020/12/06 05:35:29;;;;;;;110.50;62.37;;;;;;;6.91;75.52;99907.08;124603;1095;104516;-73
2020/12/06 05:37:57;;;;;;;861.63;668.43;;;;;;;6.89;74.95;99915.20;124626;1095;104683;-73
2020/12/06 05:40:26;;;;;;;290.70;162.20;;;;;;;6.92;74.91;99911.42;124623;1095;104592;-73
2020/12/06 05:42:54;;;;;;;125.63;75.60;;;;;;;6.92;74.69;99914.90;124579;1096;104596;-73
2020/12/06 05:45:22;;;;;;;109.35;77.45;;;;;;;6.92;75.56;99904.29;124569;1095;104602;-73
2020/12/06 05:47:52;;;;;;;202.83;151.17;;;;;;;6.94;75.22;99904.98;124653;1096;104577;-73
2020/12/06 05:50:21;;;;;;;296.53;217.90;;;;;;;6.94;74.55;99912.12;124575;1095;104622;-73
2020/12/06 05:52:54;;;;;;;227.87;153.97;;;;;;;6.93;75.17;99905.12;124593;1095;104579;-72
2020/12/06 05:55:22;;;;;;;229.47;150.63;;;;;;;6.92;74.73;99904.29;124626;1095;104593;-73
2020/12/06 05:57:51;;;;;;;219.47;123.17;;;;;;;6.88;75.71;99908.20;124602;1095;104618;-75
2020/12/06 06:00:20;;;;;;;261.90;137.70;;;;;;;6.85;74.40;99906.67;124635;1095;104935;-74
2020/12/06 06:02:57;;;;;;;224.50;106.57;;;;;;;6.85;74.98;99904.02;124587;1095;104625;-72
2020/12/06 06:05:28;;;;;;;258.20;145.20;;;;;;;6.86;74.27;99916.28;124581;1095;104512;-73
2020/12/06 06:08:00;;;;;;;;;;;;;;;6.85;75.04;99917.28;124677;1095;104496;-72
2020/12/06 06:10:35;;;;;;;325.87;217.87;;;;;;;6.83;75.62;99927.19;124612;1095;104502;-73
2020/12/06 06:13:05;;;;;;;161.97;99.80;;;;;;;6.85;74.58;99934.98;124548;1095;104589;-72
2020/12/06 06:15:33;;;;;;;187.00;142.90;;;;;;;6.85;74.88;99932.33;124614;1095;104589;-74
2020/12/06 06:18:03;;;;;;;83.00;55.17;;;;;;;6.86;74.78;99934.02;124626;1095;104666;-74
2020/12/06 06:20:32;;;;;;;328.30;201.90;;;;;;;6.85;74.75;99935.84;124601;1096;104592;-73
2020/12/06 06:23:02;;;;;;;313.25;210.25;;;;;;;6.85;75.74;99929.67;124606;1090;104487;-73
2020/12/06 06:25:31;;;;;;;391.27;270.60;;;;;;;6.86;74.57;99928.72;124611;1095;104592;-73
2020/12/06 06:28:02;;;;;;;390.60;256.95;;;;;;;6.86;75.79;99923.41;124661;1095;104583;-73
2020/12/06 06:30:31;;;;;;;293.85;181.65;;;;;;;6.88;75.14;99926.77;124665;1095;104941;-74
2020/12/06 06:33:11;;;;;;;262.97;168.30;;;;;;;6.88;75.02;99927.59;124587;1095;104519;-74
2020/12/06 06:35:46;;;;;;;232.40;170.75;;;;;;;6.87;74.67;99922.42;124613;1095;104577;-74
2020/12/06 06:38:14;;;;;;;113.00;76.90;;;;;;;6.87;75.03;99925.94;124699;1095;104592;-76
2020/12/06 06:40:45;;;;;;;150.63;104.47;;;;;;;6.85;74.40;99930.54;124739;1095;104664;-75
2020/12/06 06:43:18;;;;;;;183.82;131.47;;;;;;;6.85;75.42;99934.98;124626;1096;104506;-74
2020/12/06 06:45:46;;;;;;;145.10;98.97;;;;;;;6.85;74.92;99937.63;124605;1095;104570;-74
2020/12/06 06:48:17;;;;;;;89.47;58.43;;;;;;;6.86;75.29;99928.72;124656;1095;104688;-77
2020/12/06 06:50:48;;;;;;;134.00;82.33;;;;;;;6.89;74.59;99941.72;124635;1096;104561;-75
2020/12/06 06:53:18;;;;;;;82.82;49.10;;;;;;;6.91;74.78;99933.59;124620;1095;104571;-74
2020/12/06 06:55:52;;;;;;;81.87;52.60;;;;;;;6.91;75.32;99931.80;124601;1095;104538;-74
2020/12/06 06:58:24;;;;;;;82.95;51.30;;;;;;;6.92;75.70;99935.29;124604;1095;104618;-76
2020/12/06 07:01:12;;;;;;;253.10;144.40;;;;;;;6.91;75.55;99937.11;124608;1095;104535;-77
2020/12/06 07:03:43;;;;;;;587.57;379.07;;;;;;;6.93;74.56;99935.16;124601;1095;104986;-74
2020/12/06 07:06:12;;;;;;;584.43;348.77;;;;;;;6.95;75.27;99929.69;124604;1095;104522;-75
2020/12/06 07:08:41;;;;;;;348.47;183.70;;;;;;;6.95;75.47;99946.47;124649;1096;104529;-73
2020/12/06 07:11:09;;;;;;;491.10;319.77;;;;;;;7.00;75.19;99938.08;124606;1095;104657;-73
2020/12/06 07:13:42;;;;;;;410.87;270.80;;;;;;;7.06;75.07;99953.44;124575;1095;104574;-74
2020/12/06 07:16:11;;;;;;;349.63;193.50;;;;;;;7.07;73.94;99942.70;124626;1095;104512;-73
2020/12/06 07:18:40;;;;;;;531.37;351.37;;;;;;;7.08;74.12;99952.35;124628;1095;104678;-77
2020/12/06 07:21:09;;;;;;;500.63;320.37;;;;;;;7.12;74.05;99954.70;124592;1096;104695;-76
2020/12/06 07:23:37;;;;;;;414.53;245.37;;;;;;;7.17;74.09;99961.28;124594;1095;104608;-75
2020/12/06 07:26:06;;;;;;;474.80;305.90;;;;;;;7.20;74.86;99958.36;124572;1095;104576;-75
2020/12/06 07:28:34;;;;;;;439.50;311.97;;;;;;;7.21;74.53;99960.02;124667;1095;104765;-75
2020/12/06 07:31:02;;;;;;;157.47;91.43;;;;;;;7.21;74.22;99962.67;124362;1097;104660;-74
2020/12/06 07:33:31;;;;;;;175.53;107.27;;;;;;;7.23;74.08;99963.37;124580;1095;104493;-74
2020/12/06 07:36:00;;;;;;;123.37;74.87;;;;;;;7.24;74.33;99956.27;124603;1095;104593;-76
2020/12/06 07:38:28;;;;;;;192.25;144.55;;;;;;;7.25;74.23;99965.89;124629;1095;104593;-74
2020/12/06 07:41:02;;;;;;;105.63;68.40;;;;;;;7.26;74.47;99959.62;124616;1095;104570;-74
2020/12/06 07:43:31;;;;;;;90.17;57.40;;;;;;;7.29;73.80;99959.33;124585;1095;104490;-74
2020/12/06 07:46:12;;;;;;;154.47;108.30;;;;;;;7.27;73.68;99975.41;124739;1090;104710;-77
2020/12/06 07:48:41;;;;;;;64.55;40.43;;;;;;;7.23;73.37;99951.92;124424;1090;104621;-73
2020/12/06 07:51:10;;;;;;;59.80;37.73;;;;;;;7.22;73.49;99959.06;124662;1095;104584;-73
2020/12/06 07:53:47;;;;;;;53.20;33.73;;;;;;;7.22;74.38;99956.41;124583;1090;104506;-72
2020/12/06 07:56:19;;;;;;;83.85;51.90;;;;;;;7.26;74.47;99962.28;124643;1095;104510;-73
2020/12/06 07:59:05;;;;;;;87.65;55.05;;;;;;;7.25;73.72;99961.42;124698;1095;104950;-73
2020/12/06 08:01:33;;;;;;;54.00;33.63;;;;;;;7.26;73.41;99952.49;124609;1095;106321;-72
2020/12/06 08:04:03;;;;;;;67.27;43.87;;;;;;;7.26;74.71;99949.84;124810;1090;104487;-73
2020/12/06 08:06:34;;;;;;;65.40;43.80;;;;;;;7.24;73.35;99962.41;124700;1095;104506;-73
2020/12/06 08:09:05;;;;;;;55.70;38.85;;;;;;;7.21;73.68;99957.37;124724;1097;104586;-74
2020/12/06 08:11:35;;;;;;;42.43;27.87;;;;;;;7.22;74.65;99956.41;124551;1095;104580;-72
2020/12/06 08:14:05;;;;;;;42.47;28.47;;;;;;;7.24;73.94;99961.58;124624;1095;104504;-70
2020/12/06 08:16:33;;;;;;;56.37;40.03;;;;;;;7.25;73.55;99955.28;124609;1095;104554;-73
2020/12/06 08:19:03;;;;;;;52.80;35.55;;;;;;;7.31;74.19;99952.06;124665;1095;104679;-72
2020/12/06 08:21:42;;;;;;;65.43;45.37;;;;;;;7.32;73.87;99959.06;124652;1095;104590;-72
2020/12/06 08:24:24;;;;;;;35.87;23.00;;;;;;;7.29;74.25;99964.63;124640;1095;104987;-73
2020/12/06 08:26:53;;;;;;;34.88;24.15;;;;;;;7.25;74.42;99963.23;124596;1095;104541;-72
2020/12/06 08:29:38;;;;;;;34.73;23.13;;;;;;;7.26;74.48;99975.55;124612;1095;105103;-73
2020/12/06 08:32:06;;;;;;;47.47;33.30;;;;;;;7.26;74.19;99971.07;124666;1090;104533;-71
2020/12/06 08:34:35;;;;;;;60.80;41.57;;;;;;;7.24;73.25;99972.20;124974;1090;104523;-71
2020/12/06 08:37:15;;;;;;;44.70;29.93;;;;;;;7.24;72.86;99966.89;124750;1090;104596;-73
2020/12/06 08:39:44;;;;;;;50.33;33.10;;;;;;;7.22;74.14;99971.50;124709;1090;104662;-75
2020/12/06 08:42:17;;;;;;;76.27;55.97;;;;;;;7.24;73.83;99966.89;124653;1090;104525;-72
2020/12/06 08:44:59;;;;;;;67.43;45.43;;;;;;;7.23;72.83;99965.20;124424;1090;104925;-72
2020/12/06 08:47:27;;;;;;;;;;;;;;;7.20;72.90;99961.02;124660;1095;104631;-71
2020/12/06 08:50:07;;;;;;;47.00;31.83;;;;;;;7.19;73.61;99961.98;124695;1095;104613;-74
2020/12/06 08:52:36;;;;;;;82.70;56.97;;;;;;;7.19;73.95;99969.11;124490;1095;104508;-72
2020/12/06 08:55:26;;;;;;;117.07;80.87;;;;;;;7.18;73.67;99957.66;124605;1096;104516;-75
2020/12/06 08:57:55;;;;;;;107.03;84.13;;;;;;;7.19;73.70;99963.80;124720;1096;104606;-73
2020/12/06 09:00:24;;;;;;;70.40;43.75;;;;;;;7.18;72.94;99959.45;124731;1095;104581;-75
2020/12/06 09:02:55;;;;;;;63.40;38.10;;;;;;;7.19;73.65;99964.63;124583;1095;104608;-75
2020/12/06 09:05:23;;;;;;;81.80;56.13;;;;;;;7.18;73.23;99960.31;124736;1090;104637;-72
2020/12/06 09:07:52;;;;;;;53.70;35.33;;;;;;;7.20;73.36;99954.87;124789;1095;104867;-72
2020/12/06 09:10:20;;;;;;;56.00;38.60;;;;;;;7.21;72.48;99951.23;124634;1095;104660;-72
2020/12/06 09:12:48;;;;;;;44.57;32.83;;;;;;;7.22;73.03;99947.61;124643;1089;104587;-72
2020/12/06 09:15:16;;;;;;;46.23;33.53;;;;;;;7.23;73.66;99944.80;124574;1095;104532;-73
2020/12/06 09:17:45;;;;;;;30.87;22.97;;;;;;;7.23;73.15;99949.27;124593;1095;104502;-73
2020/12/06 09:20:13;;;;;;;27.90;21.45;;;;;;;7.23;73.29;99938.66;124608;1095;104633;-72
2020/12/06 09:22:42;;;;;;;30.50;20.87;;;;;;;7.24;72.52;99945.66;124610;1095;104484;-73
2020/12/06 09:25:10;;;;;;;32.60;21.50;;;;;;;7.31;73.28;99944.09;124638;1095;104609;-71
2020/12/06 09:27:38;;;;;;;25.33;18.33;;;;;;;7.34;72.76;99935.88;124619;1095;104595;-71
2020/12/06 09:30:06;;;;;;;33.80;27.40;;;;;;;7.37;73.15;99938.26;124598;1095;104627;-74
2020/12/06 09:32:35;;;;;;;25.47;17.87;;;;;;;7.41;73.30;99938.78;124590;1095;104594;-74
2020/12/06 09:35:03;;;;;;;24.50;18.40;;;;;;;7.48;72.57;99931.94;124629;1095;104517;-72
2020/12/06 09:37:31;;;;;;;24.43;16.57;;;;;;;7.54;72.27;99941.16;124628;1089;104608;-73
2020/12/06 09:39:59;;;;;;;23.70;16.47;;;;;;;7.55;73.06;99941.03;124636;1090;104589;-75
2020/12/06 09:42:27;;;;;;;22.97;16.97;;;;;;;7.57;72.05;99939.06;124658;1090;104576;-74
2020/12/06 09:44:56;;;;;;;24.07;16.53;;;;;;;7.63;72.72;99946.46;124637;1090;104512;-72
2020/12/06 09:47:24;;;;;;;25.93;16.67;;;;;;;7.62;72.59;99942.14;124649;1090;104592;-73
2020/12/06 09:49:52;;;;;;;21.60;15.87;;;;;;;7.62;72.14;99935.97;124788;1090;104641;-73
2020/12/06 09:52:21;;;;;;;25.00;17.87;;;;;;;7.56;71.84;99944.52;124867;1090;104575;-73
2020/12/06 09:54:49;;;;;;;22.43;15.50;;;;;;;7.56;72.65;99944.52;124785;1090;104631;-74
2020/12/06 09:57:18;;;;;;;21.33;14.37;;;;;;;7.54;71.67;99931.38;124418;1090;104574;-73
2020/12/06 09:59:46;;;;;;;22.10;15.57;;;;;;;7.47;71.55;99920.50;124595;1090;104657;-72
2020/12/06 10:02:14;;;;;;;24.93;16.73;;;;;;;7.45;72.42;99929.59;124649;1090;104599;-73
2020/12/06 10:04:42;;;;;;;22.77;16.07;;;;;;;7.46;72.44;99923.28;124588;1090;104599;-73
2020/12/06 10:07:11;;;;;;;18.95;13.50;;;;;;;7.47;73.10;99936.42;124615;1096;104580;-74
2020/12/06 10:09:39;;;;;;;23.43;16.00;;;;;;;7.50;71.71;99929.16;124620;1095;104647;-72
2020/12/06 10:12:07;;;;;;;25.90;17.15;;;;;;;7.47;72.05;99936.42;124669;1090;104638;-73
2020/12/06 10:14:36;;;;;;;22.87;15.53;;;;;;;7.44;71.51;99938.52;124611;1095;104589;-73
2020/12/06 10:17:04;;;;;;;20.90;15.00;;;;;;;7.39;72.13;99938.09;124582;1090;104481;-73
2020/12/06 10:19:32;;;;;;;22.10;14.67;;;;;;;7.39;72.72;99944.27;124640;1095;104984;-74
2020/12/06 10:22:01;;;;;;;47.10;31.87;;;;;;;7.41;72.36;99942.30;124622;1095;104589;-74
2020/12/06 10:24:29;;;;;;;66.95;45.15;;;;;;;7.41;71.64;99926.38;124530;1095;104490;-72
2020/12/06 10:26:58;;;;;;;95.83;61.77;;;;;;;7.46;71.39;99920.62;124621;1095;104993;-73
2020/12/06 10:29:26;;;;;;;133.95;86.75;;;;;;;7.54;71.12;99925.23;124635;1096;104647;-73
2020/12/06 10:31:56;;;;;;;140.05;99.15;;;;;;;7.52;71.87;99913.92;124573;1095;104506;-73
2020/12/06 10:34:24;;;;;;;195.87;130.70;;;;;;;7.54;71.29;99926.06;124621;1095;104490;-74
2020/12/06 10:36:54;;;;;;;183.33;121.67;;;;;;;7.54;71.66;99911.95;124850;1090;104544;-72
2020/12/06 10:39:23;;;;;;;110.43;76.73;;;;;;;7.53;71.48;99912.95;124723;1090;105099;-74
2020/12/06 10:41:53;;;;;;;104.73;76.33;;;;;;;7.54;71.36;99915.44;124843;1090;104560;-73
2020/12/06 10:44:22;;;;;;;65.33;42.93;;;;;;;7.53;71.83;99919.09;125029;1095;104515;-72
2020/12/06 10:46:58;;;;;;;51.47;38.03;;;;;;;7.51;71.30;99921.05;124664;1090;104509;-74
2020/12/06 10:49:26;;;;;;;79.60;59.00;;;;;;;7.50;71.02;99905.27;124731;1095;105339;-73
2020/12/06 10:51:54;;;;;;;40.63;30.83;;;;;;;7.52;71.33;99914.75;124765;1095;104619;-72
2020/12/06 10:54:22;;;;;;;46.63;34.03;;;;;;;7.46;71.83;99921.46;124702;1095;104487;-72
2020/12/06 10:56:51;;;;;;;87.83;77.67;;;;;;;7.44;72.02;99925.25;124614;1095;105159;-72
2020/12/06 10:59:19;;;;;;;65.40;53.83;;;;;;;7.41;71.76;99918.41;124669;1095;104624;-76
2020/12/06 11:01:47;;;;;;;84.47;62.47;;;;;;;7.37;71.43;99917.02;124605;1095;104510;-72
2020/12/06 11:04:15;;;;;;;102.17;77.80;;;;;;;7.32;71.43;99905.15;124574;1095;104516;-73
2020/12/06 11:06:44;;;;;;;76.73;52.90;;;;;;;7.26;71.64;99906.55;124688;1095;104951;-73
2020/12/06 11:09:12;;;;;;;45.90;31.27;;;;;;;7.23;71.83;99896.20;124692;1095;104643;-73
2020/12/06 11:11:40;;;;;;;117.40;99.30;;;;;;;7.24;71.54;99892.58;124676;1095;104593;-72
2020/12/06 11:14:09;;;;;;;49.53;38.07;;;;;;;7.27;70.97;99889.63;124605;1097;104573;-72
2020/12/06 11:16:37;;;;;;;92.07;66.27;;;;;;;7.26;71.97;99894.11;124633;1095;104496;-76